King, NC (27021)

10:38 PM EDT on July 27, 2016 (GMT -0400)
King | | Change Station

Elev 906 ft 36.27 °N, 80.40 °W | Updated 11 minutes ago

Partly Cloudy
Partly Cloudy
72.7 °F
Feels Like 72.7 °F
N
0.0
Wind Variable Wind from SE

Today
High -- | Low -- °F
--% Chance of Precip.
Yesterday
High -- | Low -- °F
Precip. -- in
Pressure 29.94 in
Visibility 10.0 miles
Clouds Few 5500 ft
Dew Point 72 °F
Humidity 99%
Rainfall 0.20 in
Snow Depth Not available.
6:24 AM 8:30 PM
Last Quarter, 37% visible
METAR KINT 280154Z AUTO 00000KT 10SM FEW055 24/22 A2997 RMK AO2 RAE40 TSE11 SLP137 P0001 T02390222
Pressure 29.94 in
Visibility 10.0 miles
Clouds Few 5500 ft
Dew Point 72 °F
Humidity 99%
Rainfall 0.20 in
Snow Depth Not available.
6:24 AM 8:30 PM
Last Quarter, 37% visible
METAR KINT 280154Z AUTO 00000KT 10SM FEW055 24/22 A2997 RMK AO2 RAE40 TSE11 SLP137 P0001 T02390222

10-Day Weather Forecast

Almanac

Astronomy

Jul. 27, 2016 Rise Set
Actual Time
Civil Twilight
Nautical Twilight
Astronomical Twilight
Moon
Length of Visible Light
Length of Day
Tomorrow will be .
, % of the Moon is Illuminated

Today's Extremes

State Highs State Lows

Community

WunderPhotos

Upload Photos

1,928,015 photos uploaded!

WunderBlog® & News

Nearby

Air Quality

  Air Quality AQ Index Pollutant
Not available.

Snow Depth

Station Depth Elevation

Earthquake Activity

City Distance Mag. Time & Date
Minimum magnitude displayed is 2.5.

Coastal Water Temperatures

Place Temperature

Stations

Nearby Weather Stations

Station Location Temp. Windchill Dew Point Humidity Wind Precip. Elev Updated Type
                   

Watches & Warnings

There are currently no watches in effect.